Time;durP1;ratioP1;P1;durP2;ratioP2;P2;SDS_P1;SDS_P2;PMS_P1;PMS_P2;Temp;Humidity;BMP_temperature;BMP_pressure;BME280_temperature;BME280_humidity;BME280_pressure;Samples;Min_cycle;Max_cycle;Signal;HPM_P1;HPM_P2
2022/07/14 00:01:01;;;;;;;9.88;2.90;;;;;;;16.62;79.56;102044.25;5068996;28;20024;-71
2022/07/14 00:03:27;;;;;;;10.40;3.35;;;;;;;16.52;80.21;102039.31;5073538;28;20036;-71
2022/07/14 00:05:52;;;;;;;10.60;3.10;;;;;;;16.50;80.41;102039.34;5074132;28;20067;-71
2022/07/14 00:08:18;;;;;;;11.10;3.53;;;;;;;16.50;81.32;102043.75;5069720;28;20029;-71
2022/07/14 00:10:44;;;;;;;10.00;3.05;;;;;;;16.49;81.33;102044.66;5073154;28;20032;-71
2022/07/14 00:13:09;;;;;;;12.27;3.60;;;;;;;16.51;81.24;102045.47;5062783;28;20051;-71
2022/07/14 00:15:34;;;;;;;12.50;3.42;;;;;;;16.55;81.74;102031.31;5074325;28;20028;-71
2022/07/14 00:18:00;;;;;;;11.43;3.50;;;;;;;16.49;80.76;102021.81;5074219;28;20043;-71
2022/07/14 00:20:25;;;;;;;13.88;3.85;;;;;;;16.48;81.60;102020.09;5072657;28;20033;-71
2022/07/14 00:22:51;;;;;;;11.88;3.58;;;;;;;16.52;81.46;102008.56;5075753;28;20033;-71
2022/07/14 00:25:17;;;;;;;11.63;3.80;;;;;;;16.55;81.82;102005.00;5073637;28;20471;-71
2022/07/14 00:27:43;;;;;;;11.60;3.63;;;;;;;16.58;81.65;101999.63;5069787;28;20089;-71
2022/07/14 00:30:09;;;;;;;12.02;3.33;;;;;;;16.57;81.55;102011.06;5073842;28;20025;-71
2022/07/14 00:32:35;;;;;;;11.07;3.45;;;;;;;16.55;81.73;102018.16;5056788;28;20040;-71
2022/07/14 00:35:01;;;;;;;14.05;3.92;;;;;;;16.60;81.81;102040.78;5073027;28;20460;-71
2022/07/14 00:37:27;;;;;;;13.10;3.50;;;;;;;16.57;81.42;102040.88;5070641;28;20126;-71
2022/07/14 00:39:55;;;;;;;10.68;3.55;;;;;;;16.61;81.86;102029.38;5076182;28;20464;-71
2022/07/14 00:42:30;;;;;;;14.35;2.95;;;;;;;16.58;81.24;102021.56;5082036;28;20040;-71
2022/07/14 00:44:56;;;;;;;14.75;4.05;;;;;;;16.60;81.56;102027.63;5061205;28;20037;-71
2022/07/14 00:47:21;;;;;;;12.13;3.17;;;;;;;16.64;82.14;102031.03;5071804;28;20476;-71
2022/07/14 00:49:46;;;;;;;16.42;3.50;;;;;;;16.68;81.45;102026.56;5064164;28;20045;-72
2022/07/14 00:52:12;;;;;;;13.35;3.53;;;;;;;16.72;82.07;102028.19;5073832;28;20056;-71
2022/07/14 00:54:37;;;;;;;11.68;3.53;;;;;;;16.66;81.58;102034.47;5073497;28;20056;-72
2022/07/14 00:57:02;;;;;;;13.27;4.03;;;;;;;16.58;81.48;102032.09;5060135;28;20410;-71
2022/07/14 00:59:28;;;;;;;11.35;3.38;;;;;;;16.60;81.94;102021.50;5072099;28;20036;-71
2022/07/14 01:01:53;;;;;;;12.13;3.88;;;;;;;16.63;81.61;102031.94;5066143;28;20035;-71
2022/07/14 01:04:18;;;;;;;12.35;3.72;;;;;;;16.61;81.49;102031.13;5067740;28;20056;-71
2022/07/14 01:06:43;;;;;;;13.38;3.85;;;;;;;16.57;82.31;102035.59;5072530;28;20040;-71
2022/07/14 01:09:09;;;;;;;12.48;3.53;;;;;;;16.47;82.05;102034.16;5072480;28;20536;-72
2022/07/14 01:11:34;;;;;;;13.63;4.03;;;;;;;16.48;82.18;102032.38;5062813;28;20043;-71
2022/07/14 01:14:03;;;;;;;9.32;3.40;;;;;;;16.52;82.73;102052.47;5072833;28;20085;-71
2022/07/14 01:16:29;;;;;;;10.90;3.40;;;;;;;16.49;82.69;102050.78;5058800;28;20024;-71
2022/07/14 01:18:54;;;;;;;11.40;3.38;;;;;;;16.44;82.77;102050.03;5072806;28;20495;-71
2022/07/14 01:21:19;;;;;;;12.93;3.45;;;;;;;16.45;82.62;102050.88;5069814;28;20059;-71
2022/07/14 01:23:45;;;;;;;11.27;4.00;;;;;;;16.42;82.82;102046.59;5072181;28;20032;-71
2022/07/14 01:26:10;;;;;;;9.88;3.92;;;;;;;16.49;83.10;102063.94;5070658;28;20037;-71
2022/07/14 01:28:36;;;;;;;13.50;3.55;;;;;;;16.46;83.27;102053.50;5066701;28;20021;-71
2022/07/14 01:31:01;;;;;;;13.13;3.72;;;;;;;16.45;82.97;102043.88;5070909;28;20031;-71
2022/07/14 01:33:26;;;;;;;11.80;3.60;;;;;;;16.42;83.32;102051.88;5058478;28;20025;-71
2022/07/14 01:35:52;;;;;;;10.57;3.63;;;;;;;16.37;83.56;102054.63;5072351;28;20044;-71
2022/07/14 01:38:17;;;;;;;11.63;3.53;;;;;;;16.32;83.88;102053.91;5070694;28;20022;-71
2022/07/14 01:40:44;;;;;;;9.25;3.40;;;;;;;16.28;83.89;102054.88;5070044;28;20032;-71
2022/07/14 01:43:10;;;;;;;12.18;4.00;;;;;;;16.34;84.18;102053.84;5073004;28;20051;-71
2022/07/14 01:45:36;;;;;;;10.98;4.28;;;;;;;16.38;84.33;102045.84;5056766;28;20485;-71
2022/07/14 01:48:01;;;;;;;10.77;3.95;;;;;;;16.45;84.16;102048.25;5072567;28;20020;-71
2022/07/14 01:50:26;;;;;;;14.90;4.38;;;;;;;16.48;83.98;102037.66;5070834;28;20327;-71
2022/07/14 01:52:51;;;;;;;10.55;4.10;;;;;;;16.53;83.19;102044.50;5070590;28;20114;-71
2022/07/14 01:55:17;;;;;;;12.90;4.30;;;;;;;16.50;82.80;102043.75;5071110;28;20516;-71
2022/07/14 01:57:42;;;;;;;15.25;4.65;;;;;;;16.52;82.54;102037.53;5070837;28;20037;-71
2022/07/14 02:00:08;;;;;;;13.60;4.22;;;;;;;16.45;82.49;102030.72;5064577;28;20033;-71
2022/07/14 02:02:33;;;;;;;10.20;4.15;;;;;;;16.43;83.21;102026.41;5070184;28;20024;-71
2022/07/14 02:04:59;;;;;;;10.63;3.53;;;;;;;16.41;83.86;102042.22;5072286;28;20023;-71
2022/07/14 02:07:24;;;;;;;13.98;4.40;;;;;;;16.36;83.68;102031.00;5071612;28;20071;-71
2022/07/14 02:12:33;;;;;;;14.32;4.30;;;;;;;16.35;83.25;102045.06;5070771;28;20086;-72
2022/07/14 02:14:58;;;;;;;11.13;4.22;;;;;;;16.35;83.80;102039.78;5064170;28;20024;-71
2022/07/14 02:17:24;;;;;;;16.45;4.72;;;;;;;16.22;83.05;102041.91;5068797;28;20447;-71
2022/07/14 02:19:49;;;;;;;16.67;4.68;;;;;;;16.16;82.97;102039.44;5071178;28;20028;-71
2022/07/14 02:22:14;;;;;;;10.15;4.05;;;;;;;16.02;83.47;102045.09;5070161;28;20040;-71
2022/07/14 02:24:41;;;;;;;13.40;4.00;;;;;;;15.96;84.13;102053.13;5072609;28;20034;-71
2022/07/14 02:27:07;;;;;;;15.23;4.25;;;;;;;15.87;84.50;102051.59;5070619;28;20512;-71
2022/07/14 02:29:33;;;;;;;12.27;4.22;;;;;;;15.85;84.68;102047.28;5070502;28;20457;-71
2022/07/14 02:31:58;;;;;;;12.65;4.38;;;;;;;15.76;84.80;102044.88;5070486;28;20017;-71
2022/07/14 02:34:23;;;;;;;11.50;4.10;;;;;;;15.78;85.28;102056.25;5070708;28;20470;-71
2022/07/14 02:36:49;;;;;;;13.52;4.20;;;;;;;15.71;85.38;102038.91;5071581;28;20020;-71
2022/07/14 02:39:14;;;;;;;12.00;4.43;;;;;;;15.67;85.50;102030.25;5064829;28;20035;-71
2022/07/14 02:41:41;;;;;;;14.10;4.28;;;;;;;15.61;85.66;102027.72;5064515;28;20044;-71
2022/07/14 02:44:08;;;;;;;13.18;4.45;;;;;;;15.53;85.87;102022.69;5066796;28;20033;-71
2022/07/14 02:46:34;;;;;;;11.85;3.97;;;;;;;15.55;86.31;102023.47;5066711;28;20025;-71
2022/07/14 02:48:59;;;;;;;12.85;4.70;;;;;;;15.50;86.82;102021.88;5065412;28;20108;-71
2022/07/14 02:51:24;;;;;;;14.05;4.60;;;;;;;15.46;86.37;102011.44;5060830;28;20469;-71
2022/07/14 02:53:50;;;;;;;17.38;5.13;;;;;;;15.46;86.75;102006.16;5056986;28;20140;-71
2022/07/14 02:56:15;;;;;;;16.15;5.10;;;;;;;15.40;86.76;102011.59;5054412;28;20025;-71
2022/07/14 02:58:41;;;;;;;13.07;4.80;;;;;;;15.32;87.13;102008.28;5065826;28;20100;-72
2022/07/14 03:01:07;;;;;;;13.55;4.40;;;;;;;15.23;87.18;102014.63;5057315;28;20021;-71
2022/07/14 03:03:34;;;;;;;17.40;4.82;;;;;;;15.20;87.54;102019.97;5061938;28;20032;-71
2022/07/14 03:06:05;;;;;;;11.02;4.18;;;;;;;15.22;87.88;102023.41;5060299;28;20029;-71
2022/07/14 03:08:30;;;;;;;12.13;4.60;;;;;;;15.18;87.95;102013.88;5053774;28;20028;-71
2022/07/14 03:10:56;;;;;;;14.45;4.55;;;;;;;15.15;87.67;102011.34;5061159;28;20047;-71
2022/07/14 03:13:21;;;;;;;11.93;4.82;;;;;;;15.08;88.00;102008.91;5059174;28;20027;-72
2022/07/14 03:15:46;;;;;;;15.20;4.70;;;;;;;15.00;88.17;102009.06;5070952;28;20047;-71
2022/07/14 03:18:12;;;;;;;12.55;4.68;;;;;;;14.96;88.67;102003.03;5071109;28;20078;-71
2022/07/14 03:20:37;;;;;;;12.27;5.07;;;;;;;14.94;89.17;101991.72;5072349;28;20039;-71
2022/07/14 03:23:02;;;;;;;14.48;5.03;;;;;;;14.87;89.29;102005.84;5070895;28;20748;-71
2022/07/14 03:25:27;;;;;;;15.55;4.78;;;;;;;14.83;89.47;101987.59;5067286;28;20025;-71
2022/07/14 03:27:54;;;;;;;18.83;5.20;;;;;;;14.83;89.62;101998.09;5059922;28;20515;-71
2022/07/14 03:30:19;;;;;;;19.83;5.65;;;;;;;14.84;89.93;101984.06;5068140;28;20480;-71
2022/07/14 03:32:45;;;;;;;15.65;4.97;;;;;;;14.83;89.84;101991.06;5069305;28;20048;-71
2022/07/14 03:35:10;;;;;;;13.65;5.25;;;;;;;14.86;89.90;101987.53;5060374;28;20116;-71
2022/07/14 03:37:36;;;;;;;15.10;5.20;;;;;;;14.80;89.99;101987.66;5068432;28;20430;-71
2022/07/14 03:40:03;;;;;;;17.52;5.45;;;;;;;14.75;89.80;101985.16;5072121;28;20112;-71
2022/07/14 03:42:28;;;;;;;15.77;5.75;;;;;;;14.69;89.76;101990.53;5075205;28;20074;-71
2022/07/14 03:44:55;;;;;;;15.50;5.07;;;;;;;14.69;90.08;101998.41;5069250;28;20033;-71
2022/07/14 03:47:21;;;;;;;14.23;5.57;;;;;;;14.62;89.73;101999.44;5065516;28;20029;-71
2022/07/14 03:49:46;;;;;;;11.63;5.03;;;;;;;14.57;90.56;102002.16;5073528;28;20147;-71
2022/07/14 03:52:11;;;;;;;18.98;5.30;;;;;;;14.50;90.63;102001.41;5079643;28;20028;-71
2022/07/14 03:54:36;;;;;;;9.10;4.72;;;;;;;14.47;90.87;102005.84;5074617;28;20053;-71
2022/07/14 03:57:03;;;;;;;18.23;5.90;;;;;;;14.40;90.96;102010.34;5074694;28;20567;-71
2022/07/14 03:59:28;;;;;;;16.35;6.22;;;;;;;14.39;91.30;102024.38;5070925;28;20037;-70
2022/07/14 04:01:53;;;;;;;19.00;5.97;;;;;;;14.42;91.29;102023.41;5058479;28;20024;-71
2022/07/14 04:04:19;;;;;;;17.25;5.95;;;;;;;14.37;91.66;102018.28;5071631;28;20404;-71
2022/07/14 04:06:44;;;;;;;14.27;5.03;;;;;;;14.48;91.48;102024.16;5072509;28;20051;-71
2022/07/14 04:09:09;;;;;;;17.73;5.55;;;;;;;14.48;91.93;102025.94;5074882;28;20040;-71
2022/07/14 04:11:35;;;;;;;16.52;5.68;;;;;;;14.46;91.59;102025.13;5073173;28;20384;-71
2022/07/14 04:14:00;;;;;;;14.18;5.70;;;;;;;14.47;91.58;102027.69;5073492;28;20036;-71
2022/07/14 04:16:25;;;;;;;17.95;5.57;;;;;;;14.47;91.43;102022.44;5073453;28;20460;-71
2022/07/14 04:18:50;;;;;;;14.55;5.28;;;;;;;14.52;91.61;102017.16;5062735;28;20036;-71
2022/07/14 04:21:16;;;;;;;17.08;6.10;;;;;;;14.47;91.66;102016.34;5070849;28;20543;-71
2022/07/14 04:23:41;;;;;;;9.95;5.25;;;;;;;14.43;91.85;102014.69;5077928;28;20020;-71
2022/07/14 04:26:06;;;;;;;14.95;5.80;;;;;;;14.43;91.93;102020.78;5073537;28;20480;-71
2022/07/14 04:28:32;;;;;;;18.10;5.55;;;;;;;14.42;91.69;102018.19;5072985;28;20024;-71
2022/07/14 04:30:57;;;;;;;16.13;6.03;;;;;;;14.41;91.62;102012.06;5074285;28;20028;-71
2022/07/14 04:33:23;;;;;;;16.67;6.03;;;;;;;14.42;91.96;102020.81;5058535;28;20120;-71
2022/07/14 04:35:49;;;;;;;13.07;5.53;;;;;;;14.43;92.26;102010.28;5069949;28;20025;-71
2022/07/14 04:38:14;;;;;;;15.60;5.68;;;;;;;14.50;91.57;102018.91;5071978;28;20031;-71
2022/07/14 04:40:48;;;;;;;19.52;6.60;;;;;;;14.57;91.82;102022.28;5069500;28;20020;-71
2022/07/14 04:43:13;;;;;;;13.80;5.97;;;;;;;14.58;91.37;102017.00;5074193;28;20483;-71
2022/07/14 04:45:38;;;;;;;14.13;5.97;;;;;;;14.63;91.38;102012.53;5067324;28;20037;-71
2022/07/14 04:48:04;;;;;;;17.92;6.50;;;;;;;14.69;91.13;102001.88;5072918;28;20021;-71
2022/07/14 04:53:13;;;;;;;17.40;6.15;;;;;;;14.77;90.60;101993.84;5058834;28;20095;-71
2022/07/14 04:55:39;;;;;;;17.00;6.68;;;;;;;14.85;90.78;101991.91;5068890;28;20032;-71
2022/07/14 04:58:04;;;;;;;15.13;6.18;;;;;;;14.91;90.69;102006.63;5073041;28;20056;-70
2022/07/14 05:00:30;;;;;;;19.40;6.70;;;;;;;15.01;89.92;102007.28;5062206;28;20064;-71
2022/07/14 05:02:55;;;;;;;22.45;6.50;;;;;;;15.03;89.39;102010.75;5070208;28;20055;-71
2022/07/14 05:05:20;;;;;;;25.15;6.85;;;;;;;15.06;89.19;102010.69;5069064;28;20396;-70
2022/07/14 05:07:46;;;;;;;18.60;5.85;;;;;;;15.05;88.68;102017.72;5067347;28;20020;-70
2022/07/14 05:10:11;;;;;;;21.30;6.57;;;;;;;15.11;88.88;102028.06;5071371;28;20032;-71
2022/07/14 05:12:36;;;;;;;23.70;6.25;;;;;;;15.17;88.51;102024.41;5072652;28;20071;-71
2022/07/14 05:15:02;;;;;;;16.50;5.82;;;;;;;15.19;87.80;102027.88;5070818;28;20025;-71
2022/07/14 05:17:28;;;;;;;14.93;5.18;;;;;;;15.23;87.89;102032.16;5072975;28;20033;-71
2022/07/14 05:19:53;;;;;;;12.65;5.40;;;;;;;15.28;87.73;102027.66;5073975;28;20606;-71
2022/07/14 05:22:18;;;;;;;17.05;5.45;;;;;;;15.34;87.70;102018.78;5073478;28;20032;-71
2022/07/14 05:24:44;;;;;;;13.98;5.32;;;;;;;15.41;87.32;102017.72;5065799;28;20061;-71
2022/07/14 05:27:10;;;;;;;20.40;5.82;;;;;;;15.48;86.71;102011.41;5073562;28;20093;-71
2022/07/14 05:29:35;;;;;;;14.18;5.72;;;;;;;15.52;85.37;102018.31;5072950;28;20024;-71
2022/07/14 05:32:00;;;;;;;18.40;6.50;;;;;;;15.54;85.84;102019.13;5071086;28;20029;-71
2022/07/14 05:34:26;;;;;;;14.73;5.50;;;;;;;15.60;85.92;102018.13;5070103;28;20029;-71
2022/07/14 05:36:51;;;;;;;20.20;7.03;;;;;;;15.60;85.02;102015.50;5067983;28;20036;-70
2022/07/14 05:39:17;;;;;;;17.17;5.82;;;;;;;15.64;85.26;102010.13;5072459;28;20028;-71
2022/07/14 05:41:42;;;;;;;18.27;5.95;;;;;;;15.70;85.50;102013.53;5060033;28;20408;-71
2022/07/14 05:44:07;;;;;;;15.93;5.78;;;;;;;15.74;85.45;102016.03;5071208;28;20020;-71
2022/07/14 05:46:33;;;;;;;18.80;5.78;;;;;;;15.78;84.50;102015.03;5072231;28;20024;-71
2022/07/14 05:48:58;;;;;;;17.98;5.72;;;;;;;15.84;84.59;102014.88;5071416;28;20032;-71
2022/07/14 05:51:23;;;;;;;20.40;5.60;;;;;;;15.86;83.42;102020.09;5071654;28;20476;-71
2022/07/14 05:53:49;;;;;;;18.08;6.28;;;;;;;15.91;84.00;102016.44;5063548;28;20036;-71
2022/07/14 05:56:18;;;;;;;22.27;6.32;;;;;;;15.97;83.51;102022.44;5066855;28;20119;-71
2022/07/14 05:58:44;;;;;;;16.90;5.85;;;;;;;15.94;82.82;102018.13;5066415;28;20024;-71
2022/07/14 06:01:10;;;;;;;16.45;5.20;;;;;;;16.05;83.66;102016.03;5061012;28;20036;-71
2022/07/14 06:03:35;;;;;;;20.45;6.13;;;;;;;16.07;81.75;102014.25;5061361;28;20036;-71
2022/07/14 06:06:02;;;;;;;15.07;5.45;;;;;;;16.09;81.58;102009.81;5070542;28;20021;-71
2022/07/14 06:08:28;;;;;;;14.95;4.63;;;;;;;16.19;83.06;102005.16;5059843;28;20460;-71
2022/07/14 06:10:57;;;;;;;18.13;4.40;;;;;;;16.29;82.54;102008.38;5068742;28;20063;-71
2022/07/14 06:13:28;;;;;;;15.68;4.78;;;;;;;16.36;81.76;102012.56;5062016;28;20024;-71
2022/07/14 06:15:55;;;;;;;18.70;5.22;;;;;;;16.42;81.03;102011.53;5062247;28;20051;-71
2022/07/14 06:18:20;;;;;;;21.92;5.50;;;;;;;16.51;79.82;102017.38;5071539;28;20468;-71
2022/07/14 06:20:47;;;;;;;15.23;4.35;;;;;;;16.55;80.46;102012.91;5070333;28;20052;-71
2022/07/14 06:23:12;;;;;;;17.77;5.20;;;;;;;16.63;80.90;101997.72;5070173;28;20070;-71
2022/07/14 06:25:38;;;;;;;12.93;4.85;;;;;;;16.72;80.64;102004.47;5072206;28;20025;-71
2022/07/14 06:28:04;;;;;;;19.17;5.25;;;;;;;16.76;78.99;102000.88;5071213;28;20412;-71
2022/07/14 06:30:30;;;;;;;19.02;4.30;;;;;;;16.85;78.84;102000.59;5072170;28;20540;-71
2022/07/14 06:32:55;;;;;;;14.38;3.55;;;;;;;16.89;77.22;102004.84;5067667;28;20016;-71
2022/07/14 06:35:21;;;;;;;17.00;3.83;;;;;;;16.91;77.68;102003.03;5062260;28;20040;-74
2022/07/14 06:37:46;;;;;;;14.48;4.03;;;;;;;16.92;77.22;102014.44;5071450;28;20357;-74
2022/07/14 06:40:12;;;;;;;17.45;3.80;;;;;;;16.92;75.93;102007.38;5069450;28;20024;-74
2022/07/14 06:42:37;;;;;;;16.15;4.20;;;;;;;16.92;75.89;102007.38;5066878;28;20029;-74
2022/07/14 06:45:03;;;;;;;13.63;4.00;;;;;;;16.93;76.54;102005.59;5070989;28;20395;-74
2022/07/14 06:47:30;;;;;;;14.90;3.92;;;;;;;17.00;75.88;102018.56;5070028;28;20029;-73
2022/07/14 06:49:56;;;;;;;12.60;3.85;;;;;;;17.09;75.93;102022.66;5062200;28;20024;-73
2022/07/14 06:52:22;;;;;;;17.00;3.60;;;;;;;17.23;75.74;102022.19;5063864;28;20526;-73
2022/07/14 06:54:47;;;;;;;11.50;4.50;;;;;;;17.18;74.17;102014.44;5066495;28;20053;-73
2022/07/14 06:57:12;;;;;;;15.10;4.22;;;;;;;17.18;75.20;102010.97;5068272;28;20033;-73
2022/07/14 06:59:38;;;;;;;13.45;4.60;;;;;;;17.17;74.77;102009.25;5067131;28;20017;-73
2022/07/14 07:02:03;;;;;;;12.73;4.65;;;;;;;17.21;75.79;102005.59;5051811;28;20040;-73
2022/07/14 07:04:28;;;;;;;11.82;5.22;;;;;;;17.30;75.30;102002.66;5067430;28;20107;-73
2022/07/14 07:06:53;;;;;;;14.65;6.15;;;;;;;17.33;74.17;102007.84;5070419;28;20028;-73
2022/07/14 07:09:19;;;;;;;18.35;6.30;;;;;;;17.35;73.33;102006.00;5071028;28;20032;-73
2022/07/14 07:11:49;;;;;;;17.08;5.82;;;;;;;17.37;73.54;102005.97;5065671;28;20031;-73
2022/07/14 07:14:15;;;;;;;15.40;6.05;;;;;;;17.38;73.77;102008.53;5070314;28;20059;-73
2022/07/14 07:16:40;;;;;;;14.63;6.10;;;;;;;17.48;73.98;102012.56;5068924;28;20055;-73
2022/07/14 07:19:06;;;;;;;15.43;5.80;;;;;;;17.59;73.85;102006.06;5075535;28;20055;-73
2022/07/14 07:21:31;;;;;;;15.13;5.63;;;;;;;17.65;73.41;102013.78;5067522;28;20111;-73
2022/07/14 07:23:57;;;;;;;14.68;5.57;;;;;;;17.68;71.80;102003.13;5074267;28;20021;-73
2022/07/14 07:26:25;;;;;;;12.15;5.50;;;;;;;17.75;72.70;102007.25;5069594;28;20035;-73
2022/07/14 07:28:53;;;;;;;13.43;4.97;;;;;;;17.85;71.79;102010.47;5076216;28;20030;-73
2022/07/14 07:31:19;;;;;;;15.27;5.15;;;;;;;17.88;71.69;101998.03;5074113;28;20077;-73
2022/07/14 07:33:45;;;;;;;16.85;5.25;;;;;;;17.91;70.67;102002.34;5073967;28;20112;-73
2022/07/14 07:36:11;;;;;;;13.02;5.30;;;;;;;17.94;71.47;101997.81;5074884;28;20423;-73
2022/07/14 07:38:36;;;;;;;19.95;5.75;;;;;;;17.98;70.90;101999.44;5074415;28;20065;-73
2022/07/14 07:41:02;;;;;;;14.65;5.05;;;;;;;18.03;69.73;101996.63;5074214;28;20024;-73
2022/07/14 07:43:27;;;;;;;15.23;4.90;;;;;;;18.09;70.63;101987.63;5073165;28;20392;-73
2022/07/14 07:45:53;;;;;;;16.38;4.97;;;;;;;18.14;69.82;101977.75;5073973;28;20053;-73
2022/07/14 07:48:19;;;;;;;17.98;5.43;;;;;;;18.19;68.75;101973.19;5073518;28;20036;-73
2022/07/14 07:50:45;;;;;;;12.48;5.18;;;;;;;18.29;69.69;101976.34;5074870;28;20028;-73
2022/07/14 07:53:11;;;;;;;10.77;4.50;;;;;;;18.35;67.73;101976.97;5076274;28;20028;-74
2022/07/14 07:55:38;;;;;;;13.95;4.63;;;;;;;18.35;68.59;101982.25;5074477;28;20574;-74
2022/07/14 07:58:04;;;;;;;10.23;3.88;;;;;;;18.41;69.25;101987.28;5082192;28;20024;-74
2022/07/14 08:00:30;;;;;;;13.55;4.63;;;;;;;18.46;68.95;101982.69;5071850;28;20032;-74
2022/07/14 08:02:56;;;;;;;11.75;4.28;;;;;;;18.62;69.53;101975.03;5073452;28;20044;-73
2022/07/14 08:05:24;;;;;;;13.63;4.97;;;;;;;18.74;69.74;101973.72;5084823;28;20102;-73
2022/07/14 08:07:50;;;;;;;12.52;5.32;;;;;;;18.84;66.66;101964.50;5074355;28;20052;-74
2022/07/14 08:10:16;;;;;;;14.95;4.50;;;;;;;18.90;67.11;101969.56;5074998;28;20067;-74
2022/07/14 08:12:42;;;;;;;13.13;4.55;;;;;;;18.89;66.88;101957.25;5073700;28;20063;-74
2022/07/14 08:15:08;;;;;;;14.43;4.45;;;;;;;19.00;65.80;101950.66;5072605;28;20060;-73
2022/07/14 08:17:33;;;;;;;14.27;4.85;;;;;;;19.01;65.85;101955.91;5073886;28;20449;-73
2022/07/14 08:19:59;;;;;;;14.13;4.97;;;;;;;19.10;65.33;101957.31;5068058;28;20037;-73
2022/07/14 08:22:25;;;;;;;14.57;4.95;;;;;;;19.17;63.85;101953.47;5066865;28;20025;-73
2022/07/14 08:24:51;;;;;;;14.82;4.68;;;;;;;19.24;64.33;101948.81;5070046;28;20033;-73
2022/07/14 08:27:16;;;;;;;12.02;4.15;;;;;;;19.34;65.54;101953.63;5073030;28;20032;-73
2022/07/14 08:29:42;;;;;;;10.85;4.38;;;;;;;19.35;63.51;101943.91;5074298;28;20082;-73
2022/07/14 08:32:07;;;;;;;10.20;3.85;;;;;;;19.58;63.65;101951.69;5072291;28;20111;-73
2022/07/14 08:34:33;;;;;;;10.10;4.32;;;;;;;19.78;60.79;101953.53;5072324;28;20501;-73
2022/07/14 08:37:01;;;;;;;12.15;3.92;;;;;;;20.34;61.75;101939.47;5064100;28;20023;-75
2022/07/14 08:39:26;;;;;;;7.68;3.28;;;;;;;20.86;57.38;101935.25;5072531;28;20039;-73
2022/07/14 08:41:54;;;;;;;8.00;3.22;;;;;;;21.05;57.45;101934.25;5072591;28;20263;-73
2022/07/14 08:44:20;;;;;;;8.27;3.17;;;;;;;21.07;57.10;101944.81;5074289;28;20056;-72
2022/07/14 08:46:46;;;;;;;9.00;3.33;;;;;;;21.05;55.24;101949.31;5072526;28;20059;-73
2022/07/14 08:49:14;;;;;;;9.57;3.80;;;;;;;21.00;56.68;101949.56;5074825;28;20016;-73
2022/07/14 08:51:40;;;;;;;15.55;3.78;;;;;;;20.97;56.06;101949.72;5073666;28;20358;-73
2022/07/14 08:54:09;;;;;;;12.43;4.05;;;;;;;20.93;56.42;101944.66;5069227;28;20052;-74
2022/07/14 08:56:35;;;;;;;9.07;2.95;;;;;;;20.84;57.17;101947.75;5072676;28;20033;-73
2022/07/14 08:59:00;;;;;;;9.57;3.30;;;;;;;20.66;58.36;101945.03;5074847;28;20024;-73
2022/07/14 09:01:26;;;;;;;11.40;3.72;;;;;;;20.58;58.23;101934.81;5069597;28;20056;-73
2022/07/14 09:03:52;;;;;;;13.20;4.03;;;;;;;20.72;58.40;101943.91;5073065;28;20444;-73
2022/07/14 09:06:50;;;;;;;10.13;3.38;;;;;;;20.83;58.46;101946.00;5074273;28;20048;-73
2022/07/14 09:09:18;;;;;;;10.48;3.90;;;;;;;20.92;57.95;101937.63;5072834;28;20498;-73
2022/07/14 09:11:49;;;;;;;10.02;3.80;;;;;;;21.04;56.75;101937.00;5072881;28;20051;-73
2022/07/14 09:14:15;;;;;;;10.60;3.75;;;;;;;21.15;57.39;101934.66;5073800;28;20028;-73
2022/07/14 09:16:40;;;;;;;8.48;3.17;;;;;;;21.32;56.30;101931.19;5072483;28;20101;-74
2022/07/14 09:19:11;;;;;;;9.00;3.22;;;;;;;21.35;56.37;101940.78;5067194;28;20029;-74
2022/07/14 09:21:38;;;;;;;9.00;3.25;;;;;;;21.39;55.13;101931.75;5067835;28;20464;-72
2022/07/14 09:24:06;;;;;;;6.13;3.08;;;;;;;21.32;54.94;101925.00;5072616;28;20036;-72
2022/07/14 09:26:31;;;;;;;10.35;3.65;;;;;;;21.45;54.24;101934.94;5058175;28;20469;-72
2022/07/14 09:28:56;;;;;;;7.43;2.90;;;;;;;21.67;50.84;101937.31;5069290;28;20085;-72
2022/07/14 09:31:25;;;;;;;8.40;3.38;;;;;;;22.09;52.44;101933.28;5067507;28;20389;-72
2022/07/14 09:33:52;;;;;;;7.00;3.17;;;;;;;22.04;51.29;101926.50;5057575;28;20095;-72
2022/07/14 09:36:30;;;;;;;12.27;3.33;;;;;;;22.00;52.16;101928.47;5070761;28;20052;-72
2022/07/14 09:39:07;;;;;;;5.97;2.63;;;;;;;21.98;51.59;101933.03;5064124;28;20043;-72
2022/07/14 09:41:36;;;;;;;6.75;2.63;;;;;;;22.09;51.35;101925.31;5065316;28;20488;-72
2022/07/14 09:44:05;;;;;;;8.15;2.72;;;;;;;22.37;51.18;101929.16;5062850;28;20013;-72
2022/07/14 09:46:49;;;;;;;6.72;2.60;;;;;;;22.46;47.69;101922.47;5063869;28;20032;-72
2022/07/14 09:49:19;;;;;;;7.60;1.90;;;;;;;22.83;44.56;101923.88;5064431;28;20025;-72
2022/07/14 09:51:55;;;;;;;7.65;2.17;;;;;;;22.99;43.24;101927.41;5064719;28;20028;-72
2022/07/14 09:54:46;;;;;;;6.05;1.88;;;;;;;23.37;44.50;101933.06;5064659;28;20049;-72
2022/07/14 09:57:11;;;;;;;4.53;1.83;;;;;;;23.52;41.68;101933.13;5063711;28;20178;-72
2022/07/14 09:59:48;;;;;;;5.27;2.10;;;;;;;23.46;43.21;101929.03;5063521;28;20512;-72
2022/07/14 10:02:17;;;;;;;6.07;1.80;;;;;;;23.70;44.15;101932.00;5068192;28;20124;-71
2022/07/14 10:04:44;;;;;;;7.28;2.20;;;;;;;23.96;41.28;101932.19;5063561;28;20017;-73
2022/07/14 10:07:11;;;;;;;9.02;2.25;;;;;;;24.10;43.01;101934.00;5072894;28;20031;-72
2022/07/14 10:09:39;;;;;;;5.78;2.10;;;;;;;24.25;40.26;101919.69;5071602;28;20104;-72
2022/07/14 10:12:05;;;;;;;6.72;2.17;;;;;;;24.65;39.84;101914.47;5071513;28;20094;-72
2022/07/14 10:14:31;;;;;;;4.78;2.08;;;;;;;24.64;36.50;101916.28;5068507;28;20020;-73
2022/07/14 10:16:58;;;;;;;5.57;2.33;;;;;;;24.61;41.32;101923.63;5072044;28;20422;-72
2022/07/14 10:19:25;;;;;;;6.60;2.53;;;;;;;24.57;38.86;101928.31;5062514;28;20028;-72
2022/07/14 10:21:55;;;;;;;5.50;2.15;;;;;;;24.35;40.70;101930.63;5063581;28;20074;-72
2022/07/14 10:24:22;;;;;;;8.68;2.63;;;;;;;24.17;42.10;101932.69;5063232;28;20051;-72
2022/07/14 10:26:47;;;;;;;7.57;2.90;;;;;;;24.03;41.68;101929.06;5060996;28;20470;-72
2022/07/14 10:29:13;;;;;;;5.63;2.53;;;;;;;24.19;42.00;101934.25;5061777;28;20108;-72
2022/07/14 10:31:48;;;;;;;6.60;2.30;;;;;;;24.19;41.69;101934.25;5066058;28;20056;-72
2022/07/14 10:34:28;;;;;;;4.25;2.00;;;;;;;24.29;40.92;101938.03;5062345;28;20028;-77
2022/07/14 10:37:01;;;;;;;8.73;2.53;;;;;;;24.27;44.32;101947.13;5061738;28;20464;-77
2022/07/14 10:39:56;;;;;;;6.70;2.08;;;;;;;24.18;40.96;101947.69;5061199;28;20609;-77
2022/07/14 10:43:06;;;;;;;5.38;2.28;;;;;;;24.06;41.99;101939.50;5063010;28;20045;-77
2022/07/14 10:45:33;;;;;;;5.28;2.10;;;;;;;24.30;43.25;101942.44;5055215;28;20044;-76
2022/07/14 10:47:58;;;;;;;27.58;3.53;;;;;;;24.64;44.83;101944.75;5066329;28;20082;-77
2022/07/14 10:50:28;;;;;;;6.15;1.70;;;;;;;24.93;41.09;101929.50;5055564;28;20025;-77
2022/07/14 10:52:53;;;;;;;7.63;1.90;;;;;;;25.28;40.29;101935.16;5052000;28;20051;-77
2022/07/14 10:55:31;;;;;;;4.90;2.13;;;;;;;25.38;38.94;101938.06;5050699;28;20465;-77
2022/07/14 10:58:07;;;;;;;5.97;2.20;;;;;;;25.03;40.49;101925.25;5060232;28;20044;-77
2022/07/14 11:00:44;;;;;;;5.80;2.08;;;;;;;24.97;43.86;101926.50;5058851;28;20782;-77
2022/07/14 11:03:45;;;;;;;5.93;1.85;;;;;;;25.23;43.33;101931.94;5068837;28;20376;-77
2022/07/14 11:06:17;;;;;;;4.53;1.80;;;;;;;25.44;41.34;101927.81;5066983;28;20039;-76
2022/07/14 11:08:45;;;;;;;4.13;1.70;;;;;;;25.38;40.47;101930.06;5070786;28;20024;-77
2022/07/14 11:11:23;;;;;;;6.20;2.08;;;;;;;25.34;39.74;101933.88;5060387;28;20112;-77
2022/07/14 11:14:00;;;;;;;4.50;1.98;;;;;;;25.41;39.20;101935.19;5065318;28;20078;-77
2022/07/14 11:16:47;;;;;;;5.15;2.00;;;;;;;25.64;40.19;101930.91;5069787;28;20028;-77
2022/07/14 11:19:43;;;;;;;6.32;2.08;;;;;;;25.96;38.22;101935.81;5072008;28;20112;-77
2022/07/14 11:22:08;;;;;;;5.63;2.05;;;;;;;26.38;37.71;101935.38;5066309;28;20391;-77
2022/07/14 11:24:33;;;;;;;6.60;2.67;;;;;;;26.40;35.70;101935.28;5083716;28;20091;-77